Buoy 46611

sailwx.info

Track history (hours):
 
Tides and Currents Weather Stations Pressure Air Temp Water Temp Dewpoint Dewpoint Depression Visibility Wind Speed Wind Dir Waves Ship Positions

Drifting buoy 46611

Last reported at 2014-Sep-21 06:00 UTC. Time now 2014-Sep-21 10:03 UTC.
Position N 50°49' W 140°09'.

Barometer 1001.0 mb
Water temperature 16.0 ° C

Date/timePositionNaut miles runAvg speedWind from/ knotsBaromVisibWave heightAir tempDewpointWater temp
2014-Sep-21 06:00N 50°49' W 140°09'1 1.4 1001.0 16.0
2014-Sep-21 05:00N 50°48' W 140°10'2 1.5 1001.6 15.9
2014-Sep-21 04:00N 50°49' W 140°09'0 0.0 1002.2 15.9
2014-Sep-21 03:00N 50°49' W 140°09'0 0.3 1003.1 16.0
2014-Sep-21 02:00N 50°49' W 140°09'1 0.9 1004.0 16.0
2014-Sep-21 01:00N 50°50' W 140°08'1 0.6 1004.2 16.0
2014-Sep-21 00:00N 50°50' W 140°09'2 1.7 1005.2 16.0
2014-Sep-20 23:00N 50°51' W 140°10'0 0.0 1006.0 16.0
2014-Sep-20 22:00N 50°51' W 140°10'1 1.1 1005.9 16.0
2014-Sep-20 21:00N 50°52' W 140°11'2 1.7 1005.8 16.0
2014-Sep-20 20:00N 50°52' W 140°13'2 2.1 1006.2 16.0
2014-Sep-20 19:00N 50°51' W 140°17'1 0.6 1006.0 16.0
2014-Sep-20 18:00N 50°51' W 140°17'0 0.0 1005.7 16.0
2014-Sep-20 17:00N 50°51' W 140°17'2 1.1 1005.6 16.0
2014-Sep-20 15:00N 50°49' W 140°15'0 0.5 1004.2 16.0
2014-Sep-20 14:00N 50°48' W 140°15'0 0.4 1003.7 15.9
2014-Sep-20 13:00N 50°48' W 140°15'0 0.5 1003.8 16.0
2014-Sep-20 12:00N 50°48' W 140°14'1 0.9 1003.3 15.9
2014-Sep-20 11:00N 50°49' W 140°14'1 0.3 1003.9 15.9
2014-Sep-20 07:00N 50°50' W 140°14'1 0.5 1002.6 16.0
2014-Sep-20 06:00N 50°51' W 140°15'2 1.6 1000.8 16.0
2014-Sep-20 05:00N 50°51' W 140°17'0 0.0 998.9 16.0
2014-Sep-20 04:00N 50°51' W 140°17'1 0.9 998.0 16.0
2014-Sep-20 03:00N 50°50' W 140°18'1 0.7 997.6 16.0
2014-Sep-20 02:00N 50°50' W 140°18'1 1.0 998.0 16.0
2014-Sep-20 01:00N 50°50' W 140°19'2 1.6 999.3 16.0
2014-Sep-20 00:00N 50°49' W 140°21'1 1.1 1001.4 16.0
2014-Sep-19 23:00N 50°49' W 140°20'0 0.0 1004.4 16.0
2014-Sep-19 22:00N 50°49' W 140°20'2 1.8 1005.6 16.0
2014-Sep-19 21:00N 50°47' W 140°21'1 0.5 1007.1 16.0
2014-Sep-19 19:00N 50°46' W 140°20'1 0.9 1008.5 16.0
2014-Sep-19 18:00N 50°47' W 140°19'0 0.0 1008.6 16.0
2014-Sep-19 17:00N 50°47' W 140°19'1 0.8 1008.9 16.0
2014-Sep-19 16:00N 50°47' W 140°18'1 0.9 1009.1 16.0
2014-Sep-19 15:00N 50°48' W 140°19'1 0.9 1008.8 16.0
2014-Sep-19 14:00N 50°48' W 140°20'1 1.4 1008.5 16.0
2014-Sep-19 13:00N 50°48' W 140°22'0 0.0 1009.1 16.0
2014-Sep-19 12:00N 50°48' W 140°22'0 0.0 1008.4 16.0
2014-Sep-19 11:00N 50°48' W 140°22'3 1.0 1008.4 16.1
2014-Sep-19 08:00N 50°46' W 140°26'0 0.0 1006.8 16.1
2014-Sep-19 07:00N 50°46' W 140°26'1 0.8 1006.0 16.1
2014-Sep-19 06:00N 50°46' W 140°25'1 0.9 1005.3 16.1
2014-Sep-19 05:00N 50°45' W 140°24'1 0.7 1004.4 16.2
2014-Sep-19 03:00N 50°47' W 140°24'0 0.1 1002.5 16.3
2014-Sep-19 01:00N 50°47' W 140°24'1 1.0 1001.1 16.3
2014-Sep-19 00:00N 50°47' W 140°25'1 1.4 999.9 16.4
2014-Sep-18 23:00N 50°49' W 140°27'5 0.7 999.1 16.4
2014-Sep-18 16:00N 50°48' W 140°34'1 1.0 993.4 16.5
2014-Sep-18 15:00N 50°49' W 140°33'2 1.0 993.0 16.5
2014-Sep-18 13:00N 50°47' W 140°35'1 0.5 993.1 16.5
2014-Sep-18 11:00N 50°48' W 140°37'0 0.0 993.9 16.5
2014-Sep-18 09:00N 50°48' W 140°37'1 0.2 995.3 16.6
2014-Sep-18 06:00N 50°48' W 140°36'2 0.9 997.0 16.6
2014-Sep-18 04:00N 50°49' W 140°33'4 3.8 997.6 16.6
2014-Sep-18 03:00N 50°47' W 140°39'1 0.5 998.3 16.6
2014-Sep-18 02:00N 50°47' W 140°39'2 1.9 999.2 16.6
2014-Sep-18 01:00N 50°46' W 140°42'0 0.0 1000.7 16.7
2014-Sep-18 00:00N 50°46' W 140°42'1 0.6 1001.8 16.7
2014-Sep-17 23:00N 50°46' W 140°41'2 1.0 1003.0 16.7
2014-Sep-17 21:00N 50°44' W 140°41'0 0.0 1004.9 16.7
2014-Sep-17 20:00N 50°44' W 140°41'1 1.0 1005.7 16.7
2014-Sep-17 19:00N 50°44' W 140°43'0 0.0 1006.0 16.7
2014-Sep-17 18:00N 50°44' W 140°43'1 0.8 1006.8 16.7
2014-Sep-17 17:00N 50°43' W 140°42'0 0.2 1007.5 16.7
2014-Sep-17 15:00N 50°43' W 140°43'2 0.9 1008.5 16.7
2014-Sep-17 13:00N 50°43' W 140°45'0 0.0 1009.7 16.8
2014-Sep-17 12:00N 50°43' W 140°45'2 2.4 1010.3 16.8
2014-Sep-17 11:00N 50°40' W 140°46'0 0.0 1011.1 16.8
2014-Sep-17 10:00N 50°40' W 140°46'2 0.7 1011.7 16.8
2014-Sep-17 07:00N 50°40' W 140°49'0 0.0 1013.1 16.9
2014-Sep-17 06:00N 50°40' W 140°49'3 3.3 1013.2 16.9
2014-Sep-17 05:00N 50°39' W 140°44'0 0.0 1013.4 16.9
2014-Sep-17 04:00N 50°39' W 140°44'0 0.0 1013.4 16.9
2014-Sep-17 03:00N 50°39' W 140°44'1 0.4 1013.6 17.0
2014-Sep-17 01:00N 50°38' W 140°43'1 0.7 1014.2 17.0
2014-Sep-17 00:00N 50°38' W 140°44'1 0.9 1014.3 17.0
2014-Sep-16 23:00N 50°39' W 140°44'1 0.6 1014.9 16.9
2014-Sep-16 21:00N 50°38' W 140°45'1 0.5 1015.2 16.8
2014-Sep-16 19:00N 50°37' W 140°45'2 1.7 1015.1 16.8
2014-Sep-16 18:00N 50°35' W 140°46'0 0.0 1014.7 16.7
2014-Sep-16 17:00N 50°35' W 140°46'0 0.0 1014.7 16.7
2014-Sep-16 16:00N 50°35' W 140°46'1 1.3 1014.7 16.7
2014-Sep-16 15:00N 50°35' W 140°44'0 0.0 1014.5 16.7
2014-Sep-16 14:00N 50°35' W 140°44'1 1.3 1014.3 16.7
2014-Sep-16 13:00N 50°34' W 140°45'0 0.0 1014.4 16.7
2014-Sep-16 12:00N 50°34' W 140°45'2 1.1 1014.6 16.8
2014-Sep-16 10:00N 50°33' W 140°42'0 0.0 1014.8 16.8
2014-Sep-16 05:00N 50°33' W 140°42'0 0.0 1014.2 16.8
2014-Sep-16 04:00N 50°33' W 140°42'0 0.5 1013.7 16.8
2014-Sep-16 03:00N 50°33' W 140°42'0 0.0 1013.7 16.8
2014-Sep-16 02:00N 50°33' W 140°42'3 1.4 1013.5 16.9
2014-Sep-16 00:00N 50°31' W 140°45'1 1.2 1013.7 16.9
2014-Sep-15 23:00N 50°31' W 140°43'2 1.7 1013.8 16.8
2014-Sep-15 22:00N 50°29' W 140°45'2 1.1 1013.9 16.8
2014-Sep-15 20:00N 50°28' W 140°43'3 2.7 1013.7 16.8
2014-Sep-15 19:00N 50°28' W 140°39'0 0.0 1013.2 16.7
2014-Sep-15 18:00N 50°28' W 140°39'0 0.1 1013.1 16.7
2014-Sep-15 17:00N 50°28' W 140°39'1 1.0 1012.7 16.7
2014-Sep-15 16:00N 50°29' W 140°40'0 0.0 1012.4 16.8
2014-Sep-15 14:00N 50°29' W 140°40'1 1.2 1011.6 16.8
2014-Sep-15 13:00N 50°29' W 140°42'1 1.2 1011.0 16.8
2014-Sep-15 12:00N 50°28' W 140°42'3 1.5 1011.4 16.8
2014-Sep-15 10:00N 50°25' W 140°41'0 0.0 1012.2 16.8
2014-Sep-15 07:00N 50°25' W 140°41'0 0.1 1012.7 16.8
2014-Sep-15 06:00N 50°25' W 140°41'1 0.3 1012.9 16.8
2014-Sep-15 02:00N 50°24' W 140°39'1 0.2 1013.1 16.8
2014-Sep-14 22:00N 50°24' W 140°40'1 1.1 1014.5 16.8
2014-Sep-14 21:00N 50°23' W 140°41'1 0.9 1014.7 16.8
2014-Sep-14 20:00N 50°23' W 140°42'1 1.0 1014.8 16.8
2014-Sep-14 19:00N 50°22' W 140°43'2 2.5 1014.9 16.7
2014-Sep-14 18:00N 50°20' W 140°40'0 0.0 1015.1 16.7
2014-Sep-14 17:00N 50°20' W 140°40'1 0.5 1015.3 16.7
2014-Sep-14 16:00N 50°19' W 140°40'1 0.6 1015.5 16.7
2014-Sep-14 14:00N 50°19' W 140°39'0 0.2 1015.3 16.7
2014-Sep-14 12:00N 50°19' W 140°38'0 0.0 1015.9 16.7
2014-Sep-14 11:00N 50°19' W 140°38'1 1.3 1016.1 16.7
2014-Sep-14 10:00N 50°18' W 140°38'0 0.0 1016.3 16.7
2014-Sep-14 09:00N 50°18' W 140°38'0 0.0 1016.1 16.7
2014-Sep-14 07:00N 50°18' W 140°38'2 1.7 1016.8 16.7
2014-Sep-14 06:00N 50°17' W 140°40'0 0.1 1016.9 16.7
2014-Sep-14 05:00N 50°17' W 140°40'2 1.9 1017.2 16.7
2014-Sep-14 04:00N 50°16' W 140°38'0 0.0 1017.3 16.8
2014-Sep-14 03:00N 50°16' W 140°38'1 1.1 1017.4 16.8
2014-Sep-14 02:00N 50°16' W 140°39'0 0.1 1017.7 16.8
2014-Sep-14 01:00N 50°16' W 140°39'0 0.4 1018.3 16.8
2014-Sep-14 00:00N 50°15' W 140°38'1 0.7 1018.7 16.8
2014-Sep-13 23:00N 50°15' W 140°38'0 0.0 1019.0 16.8
2014-Sep-13 22:00N 50°15' W 140°38'1 1.1 1019.3 16.8
2014-Sep-13 21:00N 50°15' W 140°39'1 1.0 1019.8 16.7
2014-Sep-13 20:00N 50°14' W 140°39'0 0.0 1020.2 16.7
2014-Sep-13 19:00N 50°14' W 140°39'1 1.3 1020.5 16.7
2014-Sep-13 18:00N 50°12' W 140°37'0 0.0 1020.6 16.7
2014-Sep-13 17:00N 50°12' W 140°37'0 0.3 1020.8 16.7
2014-Sep-13 16:00N 50°13' W 140°38'0 0.4 1020.9 16.7
2014-Sep-13 15:00N 50°13' W 140°37'1 1.3 1021.1 16.7
2014-Sep-13 14:00N 50°11' W 140°37'2 0.8 1021.2 16.7
2014-Sep-13 12:00N 50°12' W 140°39'2 0.8 1021.8 16.7
2014-Sep-13 10:00N 50°11' W 140°39'1 0.3 1022.2 16.7
2014-Sep-13 07:00N 50°10' W 140°39'0 0.0 1023.0 16.7
2014-Sep-13 05:00N 50°10' W 140°39'1 1.3 1023.4 16.7
2014-Sep-13 04:00N 50°09' W 140°38'0 0.0 1023.4 16.8
2014-Sep-13 03:00N 50°09' W 140°38'0 0.0 1023.6 16.8
2014-Sep-13 02:00N 50°09' W 140°38'0 0.3 1023.9 16.8
2014-Sep-13 01:00N 50°09' W 140°39'1 0.7 1024.3 16.8
2014-Sep-13 00:00N 50°09' W 140°38'1 0.7 1024.4 16.8
2014-Sep-12 23:00N 50°08' W 140°38'0 0.0 1024.8 16.8
2014-Sep-12 22:00N 50°08' W 140°38'1 0.6 1025.2 16.8
2014-Sep-12 20:00N 50°07' W 140°37'1 0.5 1025.9 16.8
2014-Sep-12 19:00N 50°07' W 140°38'1 0.6 1026.2 16.8
2014-Sep-12 17:00N 50°07' W 140°39'1 1.0 1026.5 16.8
2014-Sep-12 16:00N 50°06' W 140°39'0 0.0 1026.5 16.8
2014-Sep-12 15:00N 50°06' W 140°39'0 0.4 1026.3 16.9
2014-Sep-12 14:00N 50°06' W 140°39'1 0.8 1026.3 16.9
2014-Sep-12 13:00N 50°06' W 140°38'1 0.9 1026.4 16.8
2014-Sep-12 12:00N 50°06' W 140°39'1 1.3 1026.5 16.8
2014-Sep-12 11:00N 50°05' W 140°38'1 0.2 1026.5 16.8
2014-Sep-12 08:00N 50°04' W 140°38'1 0.6 1027.4 17.0
2014-Sep-12 07:00N 50°04' W 140°39'0 0.0 1027.5 17.0
2014-Sep-12 06:00N 50°04' W 140°39'1 1.1 1027.5 17.0
2014-Sep-12 05:00N 50°04' W 140°37'1 1.2 1027.5 17.1
2014-Sep-12 04:00N 50°03' W 140°39'0 0.5 1027.2 17.1
2014-Sep-12 03:00N 50°03' W 140°38'0 0.0 1027.1 17.1
2014-Sep-12 02:00N 50°03' W 140°38'1 0.7 1027.0 17.2
2014-Sep-12 01:00N 50°04' W 140°39'1 0.6 1027.2 17.2
2014-Sep-12 00:00N 50°03' W 140°40'1 0.6 1027.3 17.2
2014-Sep-11 23:00N 50°03' W 140°40'1 1.1 1027.3 17.1
2014-Sep-11 22:00N 50°01' W 140°40'1 0.3 1027.4 17.0
2014-Sep-11 20:00N 50°01' W 140°39'0 0.5 1028.0 16.8
2014-Sep-11 19:00N 50°00' W 140°39'1 1.0 1027.9 16.8
2014-Sep-11 18:00N 50°01' W 140°38'0 0.0 1027.8 16.7
2014-Sep-11 17:00N 50°01' W 140°38'0 0.0 1027.4 16.7
2014-Sep-11 16:00N 50°01' W 140°38'0 0.4 1027.1 16.7
2014-Sep-11 15:00N 50°01' W 140°38'1 1.0 1027.0 16.7
2014-Sep-11 14:00N 50°01' W 140°40'2 0.7 1026.8 16.7
2014-Sep-11 11:00N 49°59' W 140°40'1 0.1 1026.6 16.8
2014-Sep-11 06:00N 49°59' W 140°39'   1026.6 16.8
Track history (hours):
 
Tides and Currents Weather Stations Pressure Air Temp Water Temp Dewpoint Dewpoint Depression Visibility Wind Speed Wind Dir Waves Ship Positions

Drifting buoy 46611

Last reported at 2014-Sep-21 06:00 UTC. Time now 2014-Sep-21 10:03 UTC.
Position N 50°49' W 140°09'.

Barometer 1001.0 mb
Water temperature 16.0 ° C

Date/timePositionNaut miles runAvg speedWind from/ knotsBaromVisibWave heightAir tempDewpointWater temp
2014-Sep-21 06:00N 50°49' W 140°09'1 1.4 1001.0 16.0
2014-Sep-21 05:00N 50°48' W 140°10'2 1.5 1001.6 15.9
2014-Sep-21 04:00N 50°49' W 140°09'0 0.0 1002.2 15.9
2014-Sep-21 03:00N 50°49' W 140°09'0 0.3 1003.1 16.0
2014-Sep-21 02:00N 50°49' W 140°09'1 0.9 1004.0 16.0
2014-Sep-21 01:00N 50°50' W 140°08'1 0.6 1004.2 16.0
2014-Sep-21 00:00N 50°50' W 140°09'2 1.7 1005.2 16.0
2014-Sep-20 23:00N 50°51' W 140°10'0 0.0 1006.0 16.0
2014-Sep-20 22:00N 50°51' W 140°10'1 1.1 1005.9 16.0
2014-Sep-20 21:00N 50°52' W 140°11'2 1.7 1005.8 16.0
2014-Sep-20 20:00N 50°52' W 140°13'2 2.1 1006.2 16.0
2014-Sep-20 19:00N 50°51' W 140°17'1 0.6 1006.0 16.0
2014-Sep-20 18:00N 50°51' W 140°17'0 0.0 1005.7 16.0
2014-Sep-20 17:00N 50°51' W 140°17'2 1.1 1005.6 16.0
2014-Sep-20 15:00N 50°49' W 140°15'0 0.5 1004.2 16.0
2014-Sep-20 14:00N 50°48' W 140°15'0 0.4 1003.7 15.9
2014-Sep-20 13:00N 50°48' W 140°15'0 0.5 1003.8 16.0
2014-Sep-20 12:00N 50°48' W 140°14'1 0.9 1003.3 15.9
2014-Sep-20 11:00N 50°49' W 140°14'1 0.3 1003.9 15.9
2014-Sep-20 07:00N 50°50' W 140°14'1 0.5 1002.6 16.0
2014-Sep-20 06:00N 50°51' W 140°15'2 1.6 1000.8 16.0
2014-Sep-20 05:00N 50°51' W 140°17'0 0.0 998.9 16.0
2014-Sep-20 04:00N 50°51' W 140°17'1 0.9 998.0 16.0
2014-Sep-20 03:00N 50°50' W 140°18'1 0.7 997.6 16.0
2014-Sep-20 02:00N 50°50' W 140°18'1 1.0 998.0 16.0
2014-Sep-20 01:00N 50°50' W 140°19'2 1.6 999.3 16.0
2014-Sep-20 00:00N 50°49' W 140°21'1 1.1 1001.4 16.0
2014-Sep-19 23:00N 50°49' W 140°20'0 0.0 1004.4 16.0
2014-Sep-19 22:00N 50°49' W 140°20'2 1.8 1005.6 16.0
2014-Sep-19 21:00N 50°47' W 140°21'1 0.5 1007.1 16.0
2014-Sep-19 19:00N 50°46' W 140°20'1 0.9 1008.5 16.0
2014-Sep-19 18:00N 50°47' W 140°19'0 0.0 1008.6 16.0
2014-Sep-19 17:00N 50°47' W 140°19'1 0.8 1008.9 16.0
2014-Sep-19 16:00N 50°47' W 140°18'1 0.9 1009.1 16.0
2014-Sep-19 15:00N 50°48' W 140°19'1 0.9 1008.8 16.0
2014-Sep-19 14:00N 50°48' W 140°20'1 1.4 1008.5 16.0
2014-Sep-19 13:00N 50°48' W 140°22'0 0.0 1009.1 16.0
2014-Sep-19 12:00N 50°48' W 140°22'0 0.0 1008.4 16.0
2014-Sep-19 11:00N 50°48' W 140°22'3 1.0 1008.4 16.1
2014-Sep-19 08:00N 50°46' W 140°26'0 0.0 1006.8 16.1
2014-Sep-19 07:00N 50°46' W 140°26'1 0.8 1006.0 16.1
2014-Sep-19 06:00N 50°46' W 140°25'1 0.9 1005.3 16.1
2014-Sep-19 05:00N 50°45' W 140°24'1 0.7 1004.4 16.2
2014-Sep-19 03:00N 50°47' W 140°24'0 0.1 1002.5 16.3
2014-Sep-19 01:00N 50°47' W 140°24'1 1.0 1001.1 16.3
2014-Sep-19 00:00N 50°47' W 140°25'1 1.4 999.9 16.4
2014-Sep-18 23:00N 50°49' W 140°27'5 0.7 999.1 16.4
2014-Sep-18 16:00N 50°48' W 140°34'1 1.0 993.4 16.5
2014-Sep-18 15:00N 50°49' W 140°33'2 1.0 993.0 16.5
2014-Sep-18 13:00N 50°47' W 140°35'1 0.5 993.1 16.5
2014-Sep-18 11:00N 50°48' W 140°37'0 0.0 993.9 16.5
2014-Sep-18 09:00N 50°48' W 140°37'1 0.2 995.3 16.6
2014-Sep-18 06:00N 50°48' W 140°36'2 0.9 997.0 16.6
2014-Sep-18 04:00N 50°49' W 140°33'4 3.8 997.6 16.6
2014-Sep-18 03:00N 50°47' W 140°39'1 0.5 998.3 16.6
2014-Sep-18 02:00N 50°47' W 140°39'2 1.9 999.2 16.6
2014-Sep-18 01:00N 50°46' W 140°42'0 0.0 1000.7 16.7
2014-Sep-18 00:00N 50°46' W 140°42'1 0.6 1001.8 16.7
2014-Sep-17 23:00N 50°46' W 140°41'2 1.0 1003.0 16.7
2014-Sep-17 21:00N 50°44' W 140°41'0 0.0 1004.9 16.7
2014-Sep-17 20:00N 50°44' W 140°41'1 1.0 1005.7 16.7
2014-Sep-17 19:00N 50°44' W 140°43'0 0.0 1006.0 16.7
2014-Sep-17 18:00N 50°44' W 140°43'1 0.8 1006.8 16.7
2014-Sep-17 17:00N 50°43' W 140°42'0 0.2 1007.5 16.7
2014-Sep-17 15:00N 50°43' W 140°43'2 0.9 1008.5 16.7
2014-Sep-17 13:00N 50°43' W 140°45'0 0.0 1009.7 16.8
2014-Sep-17 12:00N 50°43' W 140°45'2 2.4 1010.3 16.8
2014-Sep-17 11:00N 50°40' W 140°46'0 0.0 1011.1 16.8
2014-Sep-17 10:00N 50°40' W 140°46'2 0.7 1011.7 16.8
2014-Sep-17 07:00N 50°40' W 140°49'0 0.0 1013.1 16.9
2014-Sep-17 06:00N 50°40' W 140°49'3 3.3 1013.2 16.9
2014-Sep-17 05:00N 50°39' W 140°44'0 0.0 1013.4 16.9
2014-Sep-17 04:00N 50°39' W 140°44'0 0.0 1013.4 16.9
2014-Sep-17 03:00N 50°39' W 140°44'1 0.4 1013.6 17.0
2014-Sep-17 01:00N 50°38' W 140°43'1 0.7 1014.2 17.0
2014-Sep-17 00:00N 50°38' W 140°44'1 0.9 1014.3 17.0
2014-Sep-16 23:00N 50°39' W 140°44'1 0.6 1014.9 16.9
2014-Sep-16 21:00N 50°38' W 140°45'1 0.5 1015.2 16.8
2014-Sep-16 19:00N 50°37' W 140°45'2 1.7 1015.1 16.8
2014-Sep-16 18:00N 50°35' W 140°46'0 0.0 1014.7 16.7
2014-Sep-16 17:00N 50°35' W 140°46'0 0.0 1014.7 16.7
2014-Sep-16 16:00N 50°35' W 140°46'1 1.3 1014.7 16.7
2014-Sep-16 15:00N 50°35' W 140°44'0 0.0 1014.5 16.7
2014-Sep-16 14:00N 50°35' W 140°44'1 1.3 1014.3 16.7
2014-Sep-16 13:00N 50°34' W 140°45'0 0.0 1014.4 16.7
2014-Sep-16 12:00N 50°34' W 140°45'2 1.1 1014.6 16.8
2014-Sep-16 10:00N 50°33' W 140°42'0 0.0 1014.8 16.8
2014-Sep-16 05:00N 50°33' W 140°42'0 0.0 1014.2 16.8
2014-Sep-16 04:00N 50°33' W 140°42'0 0.5 1013.7 16.8
2014-Sep-16 03:00N 50°33' W 140°42'0 0.0 1013.7 16.8
2014-Sep-16 02:00N 50°33' W 140°42'3 1.4 1013.5 16.9
2014-Sep-16 00:00N 50°31' W 140°45'1 1.2 1013.7 16.9
2014-Sep-15 23:00N 50°31' W 140°43'2 1.7 1013.8 16.8
2014-Sep-15 22:00N 50°29' W 140°45'2 1.1 1013.9 16.8
2014-Sep-15 20:00N 50°28' W 140°43'3 2.7 1013.7 16.8
2014-Sep-15 19:00N 50°28' W 140°39'0 0.0 1013.2 16.7
2014-Sep-15 18:00N 50°28' W 140°39'0 0.1 1013.1 16.7
2014-Sep-15 17:00N 50°28' W 140°39'1 1.0 1012.7 16.7
2014-Sep-15 16:00N 50°29' W 140°40'0 0.0 1012.4 16.8
2014-Sep-15 14:00N 50°29' W 140°40'1 1.2 1011.6 16.8
2014-Sep-15 13:00N 50°29' W 140°42'1 1.2 1011.0 16.8
2014-Sep-15 12:00N 50°28' W 140°42'3 1.5 1011.4 16.8
2014-Sep-15 10:00N 50°25' W 140°41'0 0.0 1012.2 16.8
2014-Sep-15 07:00N 50°25' W 140°41'0 0.1 1012.7 16.8
2014-Sep-15 06:00N 50°25' W 140°41'1 0.3 1012.9 16.8
2014-Sep-15 02:00N 50°24' W 140°39'1 0.2 1013.1 16.8
2014-Sep-14 22:00N 50°24' W 140°40'1 1.1 1014.5 16.8
2014-Sep-14 21:00N 50°23' W 140°41'1 0.9 1014.7 16.8
2014-Sep-14 20:00N 50°23' W 140°42'1 1.0 1014.8 16.8
2014-Sep-14 19:00N 50°22' W 140°43'2 2.5 1014.9 16.7
2014-Sep-14 18:00N 50°20' W 140°40'0 0.0 1015.1 16.7
2014-Sep-14 17:00N 50°20' W 140°40'1 0.5 1015.3 16.7
2014-Sep-14 16:00N 50°19' W 140°40'1 0.6 1015.5 16.7
2014-Sep-14 14:00N 50°19' W 140°39'0 0.2 1015.3 16.7
2014-Sep-14 12:00N 50°19' W 140°38'0 0.0 1015.9 16.7
2014-Sep-14 11:00N 50°19' W 140°38'1 1.3 1016.1 16.7
2014-Sep-14 10:00N 50°18' W 140°38'0 0.0 1016.3 16.7
2014-Sep-14 09:00N 50°18' W 140°38'0 0.0 1016.1 16.7
2014-Sep-14 07:00N 50°18' W 140°38'2 1.7 1016.8 16.7
2014-Sep-14 06:00N 50°17' W 140°40'0 0.1 1016.9 16.7
2014-Sep-14 05:00N 50°17' W 140°40'2 1.9 1017.2 16.7
2014-Sep-14 04:00N 50°16' W 140°38'0 0.0 1017.3 16.8
2014-Sep-14 03:00N 50°16' W 140°38'1 1.1 1017.4 16.8
2014-Sep-14 02:00N 50°16' W 140°39'0 0.1 1017.7 16.8
2014-Sep-14 01:00N 50°16' W 140°39'0 0.4 1018.3 16.8
2014-Sep-14 00:00N 50°15' W 140°38'1 0.7 1018.7 16.8
2014-Sep-13 23:00N 50°15' W 140°38'0 0.0 1019.0 16.8
2014-Sep-13 22:00N 50°15' W 140°38'1 1.1 1019.3 16.8
2014-Sep-13 21:00N 50°15' W 140°39'1 1.0 1019.8 16.7
2014-Sep-13 20:00N 50°14' W 140°39'0 0.0 1020.2 16.7
2014-Sep-13 19:00N 50°14' W 140°39'1 1.3 1020.5 16.7
2014-Sep-13 18:00N 50°12' W 140°37'0 0.0 1020.6 16.7
2014-Sep-13 17:00N 50°12' W 140°37'0 0.3 1020.8 16.7
2014-Sep-13 16:00N 50°13' W 140°38'0 0.4 1020.9 16.7
2014-Sep-13 15:00N 50°13' W 140°37'1 1.3 1021.1 16.7
2014-Sep-13 14:00N 50°11' W 140°37'2 0.8 1021.2 16.7
2014-Sep-13 12:00N 50°12' W 140°39'2 0.8 1021.8 16.7
2014-Sep-13 10:00N 50°11' W 140°39'1 0.3 1022.2 16.7
2014-Sep-13 07:00N 50°10' W 140°39'0 0.0 1023.0 16.7
2014-Sep-13 05:00N 50°10' W 140°39'1 1.3 1023.4 16.7
2014-Sep-13 04:00N 50°09' W 140°38'0 0.0 1023.4 16.8
2014-Sep-13 03:00N 50°09' W 140°38'0 0.0 1023.6 16.8
2014-Sep-13 02:00N 50°09' W 140°38'0 0.3 1023.9 16.8
2014-Sep-13 01:00N 50°09' W 140°39'1 0.7 1024.3 16.8
2014-Sep-13 00:00N 50°09' W 140°38'1 0.7 1024.4 16.8
2014-Sep-12 23:00N 50°08' W 140°38'0 0.0 1024.8 16.8
2014-Sep-12 22:00N 50°08' W 140°38'1 0.6 1025.2 16.8
2014-Sep-12 20:00N 50°07' W 140°37'1 0.5 1025.9 16.8
2014-Sep-12 19:00N 50°07' W 140°38'1 0.6 1026.2 16.8
2014-Sep-12 17:00N 50°07' W 140°39'1 1.0 1026.5 16.8
2014-Sep-12 16:00N 50°06' W 140°39'0 0.0 1026.5 16.8
2014-Sep-12 15:00N 50°06' W 140°39'0 0.4 1026.3 16.9
2014-Sep-12 14:00N 50°06' W 140°39'1 0.8 1026.3 16.9
2014-Sep-12 13:00N 50°06' W 140°38'1 0.9 1026.4 16.8
2014-Sep-12 12:00N 50°06' W 140°39'1 1.3 1026.5 16.8
2014-Sep-12 11:00N 50°05' W 140°38'1 0.2 1026.5 16.8
2014-Sep-12 08:00N 50°04' W 140°38'1 0.6 1027.4 17.0
2014-Sep-12 07:00N 50°04' W 140°39'0 0.0 1027.5 17.0
2014-Sep-12 06:00N 50°04' W 140°39'1 1.1 1027.5 17.0
2014-Sep-12 05:00N 50°04' W 140°37'1 1.2 1027.5 17.1
2014-Sep-12 04:00N 50°03' W 140°39'0 0.5 1027.2 17.1
2014-Sep-12 03:00N 50°03' W 140°38'0 0.0 1027.1 17.1
2014-Sep-12 02:00N 50°03' W 140°38'1 0.7 1027.0 17.2
2014-Sep-12 01:00N 50°04' W 140°39'1 0.6 1027.2 17.2
2014-Sep-12 00:00N 50°03' W 140°40'1 0.6 1027.3 17.2
2014-Sep-11 23:00N 50°03' W 140°40'1 1.1 1027.3 17.1
2014-Sep-11 22:00N 50°01' W 140°40'1 0.3 1027.4 17.0
2014-Sep-11 20:00N 50°01' W 140°39'0 0.5 1028.0 16.8
2014-Sep-11 19:00N 50°00' W 140°39'1 1.0 1027.9 16.8
2014-Sep-11 18:00N 50°01' W 140°38'0 0.0 1027.8 16.7
2014-Sep-11 17:00N 50°01' W 140°38'0 0.0 1027.4 16.7
2014-Sep-11 16:00N 50°01' W 140°38'0 0.4 1027.1 16.7
2014-Sep-11 15:00N 50°01' W 140°38'1 1.0 1027.0 16.7
2014-Sep-11 14:00N 50°01' W 140°40'2 0.7 1026.8 16.7
2014-Sep-11 11:00N 49°59' W 140°40'1 0.1 1026.6 16.8
2014-Sep-11 06:00N 49°59' W 140°39'   1026.6 16.8

Dump ship's entire track history